Eastpoint, Florida
Current Conditions -  °F | °C
As of 10:53 AM on Thursday 18 Dec 2014 (Local Time) from KAAF Reporting Station
Clear Clear  
Wind Chill: 59°   Ceiling: Unl
Heat Index: 59°   Visibility: 10mi
Dew Point: 44°   Wind: 0mph
Humidity: 58%   Direction: NA
Pressure: 30.21"   Gusts: NA
Location:  29.74°N, 84.88°W
Report Text: KAAF 181553Z AUTO 00000KT 10SM CLR 15/07 A3021 RMK AO2 SLP230 T01500067 TSNO $
Loading
Personal Weather Stations






























Interactive Weather Map New forecast layout! Learn more

10-Day Weather Forecast

Advertisements
Track Severe Weather on mobile